Meteo Giornale » Osservazioni meteo Stati Uniti (USA) » Medford Rogue Valley
ore: 15:53 - Osservazioni Meteo Medford Rogue Valley
Lat. 42° 22' N Lon. 122° 52' W Alt. 405 metri s.l.m.
22 °C
Sereno
Temp. 24 Ore
12 °C
32 °C
Ovest/Nord-Ovest
27.8 Km/h
Dew point 8 °C
Umidità 40 %
Visibilità 10 Km
Il sole sorge alle ore 06:37
Il sole tramonta alle ore 19:45
| Data e Ora | Cielo e Fenomeni | T °C | DP °C | Um. % | Pres. hPa | Vis. km | Vento km/h | |
|---|---|---|---|---|---|---|---|---|
| Oggi h: 15:53 | Sereno | 22 | 8 | 40 | 1010 | 10 | O/NO 27.8 | |
| Oggi h: 14:53 | Sereno | 23 | 8 | 38 | 1010 | 10 | O/NO 25.9 | |
| Oggi h: 13:53 | Sereno | 23 | 8 | 38 | 1010 | 10 | NO 16.7 | |
| Oggi h: 12:53 | Sereno | 22 | 6 | 35 | 1011 | 10 | N 0 | |
| Oggi h: 11:53 | Sereno | 21 | 7 | 40 | 1011 | 10 | N/NO 7.4 | |
| Oggi h: 10:53 | Sereno | 19 | 8 | 48 | 1012 | 10 | N 5.5 | |
| Oggi h: 09:53 | Sereno | 18 | 8 | 51 | 1012 | 10 | N/NO 13 | |
| Oggi h: 08:53 | Sereno | 16 | 9 | 63 | 1012 | 10 | N 5.5 | |
| Oggi h: 07:53 | Sereno | 14 | 8 | 67 | 1012 | 10 | N 0 | |
| Oggi h: 06:53 | Sereno | 12 | 6 | 66 | 1011 | 10 | N 0 | |
| Oggi h: 05:53 | Sereno | 13 | 8 | 71 | 1011 | 10 | O/NO 11.1 | |
| Oggi h: 04:53 | Poco Nuvoloso | 14 | 8 | 67 | 1011 | 10 | O/NO 7.4 | |
| Oggi h: 03:53 | Sereno | 13 | 7 | 66 | 1010 | 10 | N 0 | |
| Oggi h: 02:53 | Sereno | 16 | 5 | 47 | 1010 | 10 | N 0 | |
| Oggi h: 01:53 | Sereno | 17 | 6 | 48 | 1010 | 10 | N 0 | |
| Oggi h: 00:53 | Sereno | 18 | 5 | 42 | 1010 | 10 | NO 16.7 | |
| Ieri h: 23:53 | Sereno | 19 | 4 | 37 | 1010 | 10 | O/NO 20.3 | |
| Ieri h: 22:53 | Sereno | 21 | 4 | 32 | 1010 | 10 | NO 24 | |
| Ieri h: 21:53 | Sereno | 22 | 3 | 28 | 1010 | 10 | NO 22.2 | |
| Ieri h: 20:53 | Sereno | 23 | -2 | 18 | 1009 | 10 | NO 16.7 | |
| Ieri h: 19:53 | Sereno | 26 | -3 | 14 | 1007 | 10 | O/NO 20.3 | |
| Ieri h: 18:53 | Sereno | 28 | 0 | 16 | 1006 | 10 | NO 29.6 | |
| Ieri h: 17:53 | Sereno | 31 | 4 | 18 | 1005 | 10 | O/NO 27.8 | |
| Ieri h: 16:53 | Sereno | 32 | 6 | 19 | 1005 | 10 | O/NO 25.9 | |



